Time,TemperatureF,DewpointF,PressureIn,WindDirection,WindDirectionDegrees,WindSpeedMPH,WindSpeedGustMPH,Humidity,HourlyPrecipIn,Conditions,Clouds,dailyrainin,SoftwareType,DateUTC
2013-10-06 00:01:00,64.7,63.2,29.96,West,278,0.0,0.0,95,0.01,,---,0.00,VWS V14.01,2013-10-06 04:01:00,
2013-10-06 00:02:00,64.7,63.2,29.96,West,278,0.0,0.0,95,0.01,,---,0.00,VWS V14.01,2013-10-06 04:02:00,
2013-10-06 00:07:00,64.7,63.2,29.96,West,278,0.0,0.0,95,0.01,,---,0.00,VWS V14.01,2013-10-06 04:07:00,
2013-10-06 00:12:00,64.8,63.3,29.96,West,278,0.0,0.0,95,0.01,,---,0.00,VWS V14.01,2013-10-06 04:12:00,
2013-10-06 00:17:00,64.8,63.3,29.95,West,278,0.0,0.0,95,0.01,,---,0.00,VWS V14.01,2013-10-06 04:17:00,
2013-10-06 00:22:00,64.8,63.3,29.96,West,278,0.0,0.0,95,0.01,,---,0.00,VWS V14.01,2013-10-06 04:22:00,
2013-10-06 00:27:00,64.9,63.4,29.95,West,278,0.0,0.0,95,0.01,,---,0.00,VWS V14.01,2013-10-06 04:27:00,
2013-10-06 00:32:00,64.9,63.4,29.95,West,278,0.0,0.0,95,0.01,,---,0.00,VWS V14.01,2013-10-06 04:32:00,
2013-10-06 00:37:00,64.8,63.3,29.95,West,278,0.0,0.0,95,0.01,,---,0.00,VWS V14.01,2013-10-06 04:37:00,
2013-10-06 00:42:00,64.8,63.3,29.95,West,278,0.0,0.0,95,0.01,,---,0.00,VWS V14.01,2013-10-06 04:42:00,
2013-10-06 00:47:00,64.8,63.3,29.94,West,278,0.0,0.0,95,0.00,,---,0.00,VWS V14.01,2013-10-06 04:47:00,
2013-10-06 00:52:00,64.8,63.3,29.94,West,278,0.0,0.0,95,0.00,,---,0.00,VWS V14.01,2013-10-06 04:52:00,
2013-10-06 00:57:00,64.8,63.3,29.94,West,278,0.0,0.0,95,0.00,,---,0.00,VWS V14.01,2013-10-06 04:57:00,
2013-10-06 01:02:00,64.8,63.3,29.94,West,278,0.0,0.0,95,0.00,,---,0.00,VWS V14.01,2013-10-06 05:02:00,
2013-10-06 01:07:00,64.7,63.2,29.94,West,278,0.0,0.0,95,0.00,,---,0.00,VWS V14.01,2013-10-06 05:07:00,
2013-10-06 01:12:00,64.7,63.2,29.94,West,278,0.0,0.0,95,0.00,,---,0.00,VWS V14.01,2013-10-06 05:12:00,
2013-10-06 01:17:00,64.6,63.1,29.94,West,278,0.0,0.0,95,0.00,,---,0.00,VWS V14.01,2013-10-06 05:17:00,
2013-10-06 01:22:00,64.6,63.1,29.93,West,278,0.0,0.0,95,0.00,,---,0.00,VWS V14.01,2013-10-06 05:22:00,
2013-10-06 01:27:00,64.5,63.3,29.94,West,278,0.0,0.0,96,0.00,,---,0.00,VWS V14.01,2013-10-06 05:27:00,
2013-10-06 01:32:00,64.5,63.3,29.93,West,278,0.0,0.0,96,0.00,,---,0.00,VWS V14.01,2013-10-06 05:32:00,
2013-10-06 01:37:00,64.4,63.2,29.94,West,278,0.0,0.0,96,0.00,,---,0.00,VWS V14.01,2013-10-06 05:37:00,
2013-10-06 01:42:00,64.4,63.2,29.93,West,278,0.0,0.0,96,0.00,,---,0.00,VWS V14.01,2013-10-06 05:42:00,
2013-10-06 01:47:00,64.3,63.1,29.94,West,278,0.0,0.0,96,0.00,,---,0.00,VWS V14.01,2013-10-06 05:47:00,
2013-10-06 01:52:00,64.2,63.0,29.94,West,278,0.0,0.0,96,0.00,,---,0.00,VWS V14.01,2013-10-06 05:52:00,
2013-10-06 01:57:00,64.2,62.7,29.94,West,278,0.0,0.0,95,0.00,,---,0.00,VWS V14.01,2013-10-06 05:57:00,
2013-10-06 02:02:00,64.1,62.6,29.93,West,278,0.0,0.0,95,0.00,,---,0.00,VWS V14.01,2013-10-06 06:02:00,
2013-10-06 02:07:00,64.1,62.9,29.93,West,278,0.0,0.0,96,0.00,,---,0.00,VWS V14.01,2013-10-06 06:07:00,
2013-10-06 02:12:00,64.0,62.8,29.93,West,278,0.0,0.0,96,0.00,,---,0.00,VWS V14.01,2013-10-06 06:12:00,
2013-10-06 02:17:00,63.9,62.7,29.93,West,278,0.0,0.0,96,0.00,,---,0.00,VWS V14.01,2013-10-06 06:17:00,
2013-10-06 02:22:00,63.9,62.7,29.93,West,278,0.0,0.0,96,0.00,,---,0.00,VWS V14.01,2013-10-06 06:22:00,
2013-10-06 02:27:00,63.9,62.7,29.93,West,278,0.0,0.0,96,0.00,,---,0.00,VWS V14.01,2013-10-06 06:27:00,
2013-10-06 02:32:00,63.8,62.6,29.93,West,278,0.0,0.0,96,0.00,,---,0.00,VWS V14.01,2013-10-06 06:32:00,
2013-10-06 02:37:00,63.8,62.6,29.92,West,278,0.0,0.0,96,0.00,,---,0.00,VWS V14.01,2013-10-06 06:37:00,
2013-10-06 02:42:00,63.8,62.6,29.93,West,278,0.0,0.0,96,0.00,,---,0.00,VWS V14.01,2013-10-06 06:42:00,
2013-10-06 02:47:00,63.9,62.7,29.92,West,278,0.0,0.0,96,0.00,,---,0.00,VWS V14.01,2013-10-06 06:47:00,
2013-10-06 02:52:00,63.8,62.6,29.92,West,278,0.0,0.0,96,0.00,,---,0.00,VWS V14.01,2013-10-06 06:52:00,
2013-10-06 02:57:00,63.9,62.7,29.92,West,278,0.0,0.0,96,0.00,,---,0.00,VWS V14.01,2013-10-06 06:57:00,
2013-10-06 03:02:00,63.8,62.6,29.91,West,278,0.0,0.0,96,0.00,,---,0.00,VWS V14.01,2013-10-06 07:02:00,
2013-10-06 03:07:00,63.8,62.6,29.91,West,278,0.0,0.0,96,0.00,,---,0.00,VWS V14.01,2013-10-06 07:07:00,
2013-10-06 03:12:00,63.9,62.7,29.92,West,278,0.0,0.0,96,0.00,,---,0.00,VWS V14.01,2013-10-06 07:12:00,
2013-10-06 03:17:00,63.9,62.7,29.91,West,278,0.0,0.0,96,0.00,,---,0.00,VWS V14.01,2013-10-06 07:17:00,
2013-10-06 03:22:00,63.9,62.7,29.91,West,278,0.0,0.0,96,0.00,,---,0.00,VWS V14.01,2013-10-06 07:22:00,
2013-10-06 03:27:00,63.9,62.7,29.91,West,278,0.0,0.0,96,0.00,,---,0.00,VWS V14.01,2013-10-06 07:27:00,
2013-10-06 03:32:00,63.9,62.7,29.91,West,278,0.0,0.0,96,0.00,,---,0.00,VWS V14.01,2013-10-06 07:32:00,
2013-10-06 03:37:00,63.9,62.7,29.91,West,278,0.0,0.0,96,0.00,,---,0.00,VWS V14.01,2013-10-06 07:37:00,
2013-10-06 03:42:00,63.9,62.7,29.91,West,278,0.0,0.0,96,0.00,,---,0.00,VWS V14.01,2013-10-06 07:42:00,
2013-10-06 03:47:00,63.9,62.7,29.91,West,278,0.0,0.0,96,0.00,,---,0.00,VWS V14.01,2013-10-06 07:47:00,
2013-10-06 03:52:00,63.9,62.7,29.91,West,278,0.0,0.0,96,0.00,,---,0.00,VWS V14.01,2013-10-06 07:52:00,
2013-10-06 03:57:00,64.0,62.8,29.91,West,278,0.0,0.0,96,0.00,,---,0.00,VWS V14.01,2013-10-06 07:57:00,
2013-10-06 04:02:00,64.0,62.8,29.91,West,278,0.0,0.0,96,0.00,,---,0.00,VWS V14.01,2013-10-06 08:02:00,
2013-10-06 04:07:00,64.1,62.9,29.90,West,278,0.0,0.0,96,0.00,,---,0.00,VWS V14.01,2013-10-06 08:07:00,
2013-10-06 04:12:00,64.1,62.9,29.90,West,278,0.0,0.0,96,0.00,,---,0.00,VWS V14.01,2013-10-06 08:12:00,
2013-10-06 04:17:00,64.1,62.9,29.90,West,278,0.0,0.0,96,0.00,,---,0.00,VWS V14.01,2013-10-06 08:17:00,
2013-10-06 04:22:00,64.1,62.9,29.90,West,278,0.0,0.0,96,0.00,,---,0.00,VWS V14.01,2013-10-06 08:22:00,
2013-10-06 04:27:00,64.1,62.9,29.90,West,278,0.0,0.0,96,0.00,,---,0.00,VWS V14.01,2013-10-06 08:27:00,
2013-10-06 04:32:00,64.0,62.8,29.90,West,278,0.0,0.0,96,0.00,,---,0.00,VWS V14.01,2013-10-06 08:32:00,
2013-10-06 04:37:00,64.0,62.8,29.90,West,278,0.0,0.0,96,0.00,,---,0.00,VWS V14.01,2013-10-06 08:37:00,
2013-10-06 04:42:00,64.0,62.8,29.90,West,278,0.0,0.0,96,0.00,,---,0.00,VWS V14.01,2013-10-06 08:42:00,
2013-10-06 04:47:00,64.0,62.8,29.90,West,278,0.0,0.0,96,0.00,,---,0.00,VWS V14.01,2013-10-06 08:47:00,
2013-10-06 04:52:00,64.0,62.8,29.90,West,278,0.0,0.0,96,0.00,,---,0.00,VWS V14.01,2013-10-06 08:52:00,
2013-10-06 04:57:00,64.0,62.8,29.90,West,278,0.0,0.0,96,0.00,,---,0.00,VWS V14.01,2013-10-06 08:57:00,
2013-10-06 05:02:00,64.0,62.8,29.90,West,278,0.0,0.0,96,0.00,,---,0.00,VWS V14.01,2013-10-06 09:02:00,
2013-10-06 05:07:00,64.0,62.8,29.90,West,278,0.0,0.0,96,0.00,,---,0.00,VWS V14.01,2013-10-06 09:07:00,
2013-10-06 05:09:00,64.0,62.8,29.90,West,278,0.0,0.0,96,0.00,,---,0.00,VWS V14.01,2013-10-06 09:09:00,
2013-10-06 05:14:00,63.9,62.7,29.90,West,278,0.0,0.0,96,0.00,,---,0.00,VWS V14.01,2013-10-06 09:14:00,
2013-10-06 05:19:00,63.9,62.7,29.90,West,278,0.0,0.0,96,0.00,,---,0.00,VWS V14.01,2013-10-06 09:19:00,
2013-10-06 05:24:00,63.8,62.6,29.90,West,278,0.0,0.0,96,0.00,,---,0.00,VWS V14.01,2013-10-06 09:24:00,
2013-10-06 05:29:00,63.8,62.6,29.90,West,278,0.0,0.0,96,0.00,,---,0.00,VWS V14.01,2013-10-06 09:29:00,
2013-10-06 05:34:00,63.7,62.5,29.90,West,278,0.0,0.0,96,0.00,,---,0.00,VWS V14.01,2013-10-06 09:34:00,
2013-10-06 05:39:00,63.6,62.4,29.90,West,278,0.0,0.0,96,0.00,,---,0.00,VWS V14.01,2013-10-06 09:39:00,
2013-10-06 05:44:00,63.5,62.3,29.90,West,278,0.0,0.0,96,0.00,,---,0.00,VWS V14.01,2013-10-06 09:44:00,
2013-10-06 05:49:00,63.4,62.2,29.90,West,278,0.0,0.0,96,0.00,,---,0.00,VWS V14.01,2013-10-06 09:49:00,
2013-10-06 05:54:00,63.4,62.2,29.90,West,278,0.0,0.0,96,0.00,,---,0.00,VWS V14.01,2013-10-06 09:54:00,
2013-10-06 05:59:00,63.2,62.0,29.90,West,278,0.0,0.0,96,0.00,,---,0.00,VWS V14.01,2013-10-06 09:59:00,
2013-10-06 06:04:00,63.1,61.9,29.90,West,278,0.0,0.0,96,0.00,,---,0.00,VWS V14.01,2013-10-06 10:04:00,
2013-10-06 06:09:00,63.0,61.8,29.90,West,278,0.0,0.0,96,0.00,,---,0.00,VWS V14.01,2013-10-06 10:09:00,
2013-10-06 06:14:00,62.9,61.8,29.90,West,278,0.0,0.0,96,0.00,,---,0.00,VWS V14.01,2013-10-06 10:14:00,
2013-10-06 06:19:00,62.8,61.7,29.90,West,278,0.0,0.0,96,0.00,,---,0.00,VWS V14.01,2013-10-06 10:19:00,
2013-10-06 06:24:00,62.7,61.5,29.90,West,278,0.0,0.0,96,0.00,,---,0.00,VWS V14.01,2013-10-06 10:24:00,
2013-10-06 06:29:00,62.6,61.5,29.90,West,278,0.0,0.0,96,0.00,,---,0.00,VWS V14.01,2013-10-06 10:29:00,
2013-10-06 06:34:00,62.5,61.3,29.90,West,278,0.0,0.0,96,0.00,,---,0.00,VWS V14.01,2013-10-06 10:34:00,
2013-10-06 06:39:00,62.4,61.2,29.90,West,278,0.0,0.0,96,0.00,,---,0.00,VWS V14.01,2013-10-06 10:39:00,
2013-10-06 06:44:00,62.3,61.2,29.91,West,278,0.0,0.0,96,0.00,,---,0.00,VWS V14.01,2013-10-06 10:44:00,
2013-10-06 06:49:00,62.2,61.0,29.91,West,278,0.0,0.0,96,0.00,,---,0.00,VWS V14.01,2013-10-06 10:49:00,
2013-10-06 06:54:00,62.2,61.0,29.91,West,278,0.0,0.0,96,0.00,,---,0.00,VWS V14.01,2013-10-06 10:54:00,
2013-10-06 06:59:00,62.1,61.0,29.91,West,278,0.0,0.0,96,0.00,,---,0.00,VWS V14.01,2013-10-06 10:59:00,
2013-10-06 07:04:00,62.0,60.8,29.91,West,278,0.0,0.0,96,0.00,,---,0.00,VWS V14.01,2013-10-06 11:04:00,
2013-10-06 07:09:00,62.0,60.8,29.91,West,278,0.0,0.0,96,0.00,,---,0.00,VWS V14.01,2013-10-06 11:09:00,
2013-10-06 07:14:00,61.9,60.8,29.91,West,278,0.0,0.0,96,0.00,,---,0.00,VWS V14.01,2013-10-06 11:14:00,
2013-10-06 07:19:00,61.9,60.8,29.91,West,278,0.0,0.0,96,0.00,,---,0.00,VWS V14.01,2013-10-06 11:19:00,
2013-10-06 07:24:00,61.8,60.7,29.90,West,278,0.0,0.0,96,0.00,,---,0.00,VWS V14.01,2013-10-06 11:24:00,
2013-10-06 07:29:00,61.7,60.5,29.90,West,278,0.0,0.0,96,0.00,,---,0.00,VWS V14.01,2013-10-06 11:29:00,
2013-10-06 07:34:00,61.7,60.5,29.91,West,278,0.0,0.0,96,0.00,,---,0.00,VWS V14.01,2013-10-06 11:34:00,
2013-10-06 07:39:00,61.6,60.5,29.91,West,278,0.0,0.0,96,0.00,,---,0.00,VWS V14.01,2013-10-06 11:39:00,
2013-10-06 07:44:00,61.5,60.3,29.91,West,278,0.0,0.0,96,0.00,,---,0.00,VWS V14.01,2013-10-06 11:44:00,
2013-10-06 07:49:00,61.5,60.3,29.91,West,278,0.0,0.0,96,0.00,,---,0.00,VWS V14.01,2013-10-06 11:49:00,
2013-10-06 07:54:00,61.4,60.2,29.91,West,278,0.0,0.0,96,0.00,,---,0.00,VWS V14.01,2013-10-06 11:54:00,
2013-10-06 07:59:00,61.4,60.2,29.91,West,278,0.0,0.0,96,0.00,,---,0.00,VWS V14.01,2013-10-06 11:59:00,
2013-10-06 08:04:00,61.4,60.2,29.91,West,278,0.0,0.0,96,0.00,,---,0.00,VWS V14.01,2013-10-06 12:04:00,
2013-10-06 08:09:00,61.4,60.5,29.91,West,278,0.0,0.0,97,0.00,,---,0.00,VWS V14.01,2013-10-06 12:09:00,
2013-10-06 08:14:00,61.5,60.6,29.91,West,278,0.0,0.0,97,0.00,,---,0.00,VWS V14.01,2013-10-06 12:14:00,
2013-10-06 08:19:00,61.5,60.6,29.91,West,278,0.0,0.0,97,0.00,,---,0.00,VWS V14.01,2013-10-06 12:19:00,
2013-10-06 08:24:00,61.6,60.7,29.91,West,278,0.0,0.0,97,0.00,,---,0.00,VWS V14.01,2013-10-06 12:24:00,
2013-10-06 08:29:00,61.7,60.8,29.91,West,278,0.0,0.0,97,0.00,,---,0.00,VWS V14.01,2013-10-06 12:29:00,
2013-10-06 08:34:00,61.8,60.9,29.91,West,278,0.0,0.0,97,0.00,,---,0.00,VWS V14.01,2013-10-06 12:34:00,
2013-10-06 08:39:00,61.8,60.9,29.91,West,278,0.0,0.0,97,0.00,,---,0.00,VWS V14.01,2013-10-06 12:39:00,
2013-10-06 08:44:00,62.0,61.1,29.91,West,278,0.0,0.0,97,0.00,,---,0.00,VWS V14.01,2013-10-06 12:44:00,
2013-10-06 08:49:00,62.1,61.2,29.92,West,278,0.0,0.0,97,0.00,,---,0.00,VWS V14.01,2013-10-06 12:49:00,
2013-10-06 08:54:00,62.2,61.3,29.91,West,278,0.0,0.0,97,0.00,,---,0.00,VWS V14.01,2013-10-06 12:54:00,
2013-10-06 08:59:00,62.4,61.5,29.91,West,278,0.0,0.0,97,0.00,,---,0.00,VWS V14.01,2013-10-06 12:59:00,
2013-10-06 09:04:00,62.8,62.2,29.91,West,278,0.0,0.0,98,0.00,,---,0.00,VWS V14.01,2013-10-06 13:04:00,
2013-10-06 09:09:00,63.2,62.6,29.91,West,278,0.0,0.0,98,0.00,,---,0.00,VWS V14.01,2013-10-06 13:09:00,
2013-10-06 09:14:00,63.8,63.2,29.91,West,278,0.0,0.0,98,0.00,,---,0.00,VWS V14.01,2013-10-06 13:14:00,
2013-10-06 09:19:00,64.6,64.0,29.91,West,278,0.0,0.0,98,0.00,,---,0.00,VWS V14.01,2013-10-06 13:19:00,
2013-10-06 09:24:00,65.4,64.8,29.91,SE,145,0.0,1.0,98,0.00,,---,0.00,VWS V14.01,2013-10-06 13:24:00,
2013-10-06 09:29:00,66.3,65.7,29.91,SSE,160,1.0,3.0,98,0.00,,---,0.00,VWS V14.01,2013-10-06 13:29:00,
2013-10-06 09:34:00,66.7,66.1,29.91,South,185,0.0,0.0,98,0.00,,---,0.00,VWS V14.01,2013-10-06 13:34:00,
2013-10-06 09:39:00,67.0,66.4,29.90,SSE,155,0.0,0.0,98,0.00,,---,0.00,VWS V14.01,2013-10-06 13:39:00,
2013-10-06 09:44:00,67.2,66.6,29.90,SE,135,0.0,0.0,98,0.00,,---,0.00,VWS V14.01,2013-10-06 13:44:00,
2013-10-06 09:49:00,67.6,67.0,29.90,SSE,167,0.0,2.0,98,0.00,,---,0.00,VWS V14.01,2013-10-06 13:49:00,
2013-10-06 09:54:00,68.1,67.5,29.90,SSE,163,0.0,0.0,98,0.00,,---,0.00,VWS V14.01,2013-10-06 13:54:00,
2013-10-06 09:59:00,68.5,67.9,29.90,South,190,1.0,1.0,98,0.00,,---,0.00,VWS V14.01,2013-10-06 13:59:00,
2013-10-06 10:04:00,69.1,68.5,29.90,SE,131,0.0,0.0,98,0.00,,---,0.00,VWS V14.01,2013-10-06 14:04:00,
2013-10-06 10:09:00,69.6,69.0,29.91,South,172,0.0,0.0,98,0.00,,---,0.00,VWS V14.01,2013-10-06 14:09:00,
2013-10-06 10:14:00,69.9,69.3,29.91,South,170,0.0,0.0,98,0.00,,---,0.00,VWS V14.01,2013-10-06 14:14:00,
2013-10-06 10:19:00,70.3,69.7,29.91,SE,146,0.0,1.0,98,0.00,,---,0.00,VWS V14.01,2013-10-06 14:19:00,
2013-10-06 10:24:00,70.5,69.9,29.91,ESE,121,0.0,0.0,98,0.00,,---,0.00,VWS V14.01,2013-10-06 14:24:00,
2013-10-06 10:29:00,70.8,70.2,29.91,SSE,161,0.0,1.0,98,0.00,,---,0.00,VWS V14.01,2013-10-06 14:29:00,
2013-10-06 10:34:00,71.3,70.7,29.91,South,171,1.0,1.0,98,0.00,,---,0.00,VWS V14.01,2013-10-06 14:34:00,
2013-10-06 10:39:00,71.9,71.3,29.90,ENE,63,0.0,1.0,98,0.00,,---,0.00,VWS V14.01,2013-10-06 14:39:00,
2013-10-06 10:44:00,72.4,71.5,29.90,South,172,1.0,1.0,97,0.00,,---,0.00,VWS V14.01,2013-10-06 14:44:00,
2013-10-06 10:49:00,72.8,71.3,29.90,SSE,155,2.0,3.0,95,0.00,,---,0.00,VWS V14.01,2013-10-06 14:49:00,
2013-10-06 10:54:00,73.3,71.5,29.90,ESE,102,0.0,0.0,94,0.00,,---,0.00,VWS V14.01,2013-10-06 14:54:00,
2013-10-06 10:59:00,74.0,71.5,29.90,SW,219,0.0,2.0,92,0.00,,---,0.00,VWS V14.01,2013-10-06 14:59:00,
2013-10-06 11:04:00,74.7,71.6,29.90,South,180,0.0,2.0,90,0.00,,---,0.00,VWS V14.01,2013-10-06 15:04:00,
2013-10-06 11:09:00,75.4,70.9,29.90,SE,146,0.0,0.0,86,0.00,,---,0.00,VWS V14.01,2013-10-06 15:09:00,
2013-10-06 11:14:00,75.9,70.7,29.90,SSE,161,1.0,5.0,84,0.00,,---,0.00,VWS V14.01,2013-10-06 15:14:00,
2013-10-06 11:19:00,76.5,70.6,29.90,SE,140,0.0,0.0,82,0.00,,---,0.00,VWS V14.01,2013-10-06 15:19:00,
2013-10-06 11:24:00,77.1,70.5,29.89,SE,131,0.0,0.0,80,0.00,,---,0.00,VWS V14.01,2013-10-06 15:24:00,
2013-10-06 11:28:00,77.8,70.8,29.89,SSW,207,0.0,4.0,79,0.00,,---,0.00,VWS V14.01,2013-10-06 15:28:00,
2013-10-06 11:34:00,78.5,71.8,29.89,East,89,1.0,1.0,80,0.00,,---,0.00,VWS V14.01,2013-10-06 15:34:00,
2013-10-06 11:39:00,79.1,70.9,29.89,South,179,0.0,3.0,76,0.00,,---,0.00,VWS V14.01,2013-10-06 15:39:00,
2013-10-06 11:44:00,79.7,71.1,29.89,SSE,163,4.0,4.0,75,0.00,,---,0.00,VWS V14.01,2013-10-06 15:44:00,
2013-10-06 11:49:00,80.3,71.3,29.89,South,172,2.0,5.0,74,0.00,,---,0.00,VWS V14.01,2013-10-06 15:49:00,
2013-10-06 11:54:00,80.6,69.9,29.89,SSE,165,1.0,1.0,70,0.00,,---,0.00,VWS V14.01,2013-10-06 15:54:00,
2013-10-06 11:59:00,80.8,70.1,29.89,South,180,1.0,5.0,70,0.00,,---,0.00,VWS V14.01,2013-10-06 15:59:00,
2013-10-06 12:04:00,81.1,70.4,29.88,SE,140,2.0,6.0,70,0.00,,---,0.00,VWS V14.01,2013-10-06 16:04:00,
2013-10-06 12:09:00,81.3,70.2,29.89,ESE,105,0.0,0.0,69,0.00,,---,0.00,VWS V14.01,2013-10-06 16:09:00,
2013-10-06 12:14:00,81.7,70.6,29.88,SE,128,0.0,5.0,69,0.00,,---,0.00,VWS V14.01,2013-10-06 16:14:00,
2013-10-06 12:19:00,81.8,69.8,29.88,ESE,104,0.0,0.0,67,0.00,,---,0.00,VWS V14.01,2013-10-06 16:19:00,
2013-10-06 12:23:00,81.9,70.3,29.88,South,183,1.0,5.0,68,0.00,,---,0.00,VWS V14.01,2013-10-06 16:23:00,
2013-10-06 12:28:00,82.0,70.0,29.87,SE,142,5.0,6.0,67,0.01,,---,0.01,VWS V14.01,2013-10-06 16:28:00,
2013-10-06 12:33:00,81.9,69.4,29.88,East,88,0.0,6.0,66,0.01,,---,0.01,VWS V14.01,2013-10-06 16:33:00,
2013-10-06 12:38:00,82.0,70.4,29.87,ESE,123,2.0,8.0,68,0.01,,---,0.01,VWS V14.01,2013-10-06 16:38:00,
2013-10-06 12:43:00,82.2,71.4,29.87,South,177,2.0,5.0,70,0.01,,---,0.01,VWS V14.01,2013-10-06 16:43:00,
2013-10-06 12:48:00,82.6,71.8,29.86,South,188,3.0,6.0,70,0.01,,---,0.01,VWS V14.01,2013-10-06 16:48:00,
2013-10-06 12:53:00,82.8,70.7,29.86,South,171,0.0,6.0,67,0.01,,---,0.01,VWS V14.01,2013-10-06 16:53:00,
2013-10-06 12:58:00,83.2,71.1,29.86,NNW,346,0.0,4.0,67,0.01,,---,0.01,VWS V14.01,2013-10-06 16:58:00,
2013-10-06 13:03:00,83.4,69.9,29.86,NE,36,2.0,5.0,64,0.01,,---,0.01,VWS V14.01,2013-10-06 17:03:00,
2013-10-06 13:08:00,83.7,71.6,29.85,South,173,0.0,5.0,67,0.01,,---,0.01,VWS V14.01,2013-10-06 17:08:00,
2013-10-06 13:13:00,83.8,70.3,29.85,SE,134,1.0,4.0,64,0.01,,---,0.01,VWS V14.01,2013-10-06 17:13:00,
2013-10-06 13:18:00,83.7,70.2,29.85,ENE,75,4.0,5.0,64,0.01,,---,0.01,VWS V14.01,2013-10-06 17:18:00,
2013-10-06 13:23:00,83.6,70.1,29.84,ENE,76,1.0,4.0,64,0.01,,---,0.01,VWS V14.01,2013-10-06 17:23:00,
2013-10-06 13:28:00,83.5,70.5,29.84,East,95,0.0,5.0,65,0.01,,---,0.01,VWS V14.01,2013-10-06 17:28:00,
2013-10-06 13:33:00,83.7,70.7,29.84,ESE,121,0.0,4.0,65,0.00,,---,0.01,VWS V14.01,2013-10-06 17:33:00,
2013-10-06 13:38:00,83.5,70.9,29.84,SE,131,0.0,3.0,66,0.00,,---,0.01,VWS V14.01,2013-10-06 17:38:00,
2013-10-06 13:43:00,83.2,70.2,29.83,SSE,151,0.0,2.0,65,0.00,,---,0.01,VWS V14.01,2013-10-06 17:43:00,
2013-10-06 13:48:00,83.4,72.2,29.83,SSE,149,1.0,3.0,69,0.00,,---,0.01,VWS V14.01,2013-10-06 17:48:00,
2013-10-06 13:53:00,83.7,72.0,29.82,SE,140,0.0,2.0,68,0.00,,---,0.01,VWS V14.01,2013-10-06 17:53:00,
2013-10-06 13:58:00,84.1,71.5,29.82,WSW,252,0.0,3.0,66,0.00,,---,0.01,VWS V14.01,2013-10-06 17:58:00,
2013-10-06 14:03:00,84.4,70.9,29.82,SE,129,3.0,6.0,64,0.00,,---,0.01,VWS V14.01,2013-10-06 18:03:00,
2013-10-06 14:08:00,84.6,70.6,29.82,West,261,0.0,7.0,63,0.00,,---,0.01,VWS V14.01,2013-10-06 18:08:00,
2013-10-06 14:13:00,84.7,70.7,29.82,SSE,163,0.0,6.0,63,0.00,,---,0.01,VWS V14.01,2013-10-06 18:13:00,
2013-10-06 14:18:00,84.6,72.0,29.82,NNW,342,0.0,4.0,66,0.00,,---,0.01,VWS V14.01,2013-10-06 18:18:00,
2013-10-06 14:23:00,84.7,71.6,29.82,South,180,1.0,4.0,65,0.00,,---,0.01,VWS V14.01,2013-10-06 18:23:00,
2013-10-06 14:28:00,84.6,69.7,29.81,East,90,1.0,2.0,61,0.00,,---,0.01,VWS V14.01,2013-10-06 18:28:00,
2013-10-06 14:33:00,84.5,70.1,29.81,NNE,22,0.0,5.0,62,0.00,,---,0.01,VWS V14.01,2013-10-06 18:33:00,
2013-10-06 14:38:00,84.6,70.6,29.81,NW,320,0.0,2.0,63,0.00,,---,0.01,VWS V14.01,2013-10-06 18:38:00,
2013-10-06 14:43:00,85.0,72.8,29.81,West,267,0.0,1.0,67,0.00,,---,0.01,VWS V14.01,2013-10-06 18:43:00,
2013-10-06 14:48:00,85.4,71.8,29.80,ENE,67,0.0,3.0,64,0.00,,---,0.01,VWS V14.01,2013-10-06 18:48:00,
2013-10-06 14:53:00,85.7,69.7,29.80,SSW,212,1.0,6.0,59,0.00,,---,0.01,VWS V14.01,2013-10-06 18:53:00,
2013-10-06 14:58:00,86.0,70.0,29.80,NE,37,2.0,5.0,59,0.00,,---,0.01,VWS V14.01,2013-10-06 18:58:00,
2013-10-06 15:04:00,86.2,68.7,29.80,South,184,4.0,7.0,56,0.00,,---,0.01,VWS V14.01,2013-10-06 19:04:00,
2013-10-06 15:09:00,86.4,69.9,29.80,SE,126,2.0,3.0,58,0.00,,---,0.01,VWS V14.01,2013-10-06 19:09:00,
2013-10-06 15:14:00,86.6,70.1,29.79,SSE,158,3.0,3.0,58,0.00,,---,0.01,VWS V14.01,2013-10-06 19:14:00,
2013-10-06 15:19:00,86.7,69.7,29.79,SE,143,3.0,3.0,57,0.00,,---,0.01,VWS V14.01,2013-10-06 19:19:00,
2013-10-06 15:24:00,86.4,68.9,29.79,ENE,66,1.0,1.0,56,0.00,,---,0.01,VWS V14.01,2013-10-06 19:24:00,
2013-10-06 15:29:00,86.0,68.5,29.79,SE,139,0.0,0.0,56,0.00,,---,0.01,VWS V14.01,2013-10-06 19:29:00,
2013-10-06 15:34:00,85.7,69.2,29.78,SSE,152,0.0,1.0,58,0.00,,---,0.01,VWS V14.01,2013-10-06 19:34:00,
2013-10-06 15:39:00,85.1,68.7,29.78,SSE,153,1.0,1.0,58,0.00,,---,0.01,VWS V14.01,2013-10-06 19:39:00,
2013-10-06 15:44:00,84.8,70.3,29.78,SSE,155,0.0,0.0,62,0.00,,---,0.01,VWS V14.01,2013-10-06 19:44:00,
2013-10-06 15:49:00,84.9,68.5,29.78,NNW,335,0.0,0.0,58,0.00,,---,0.01,VWS V14.01,2013-10-06 19:49:00,
2013-10-06 15:54:00,85.1,69.7,29.77,SSE,150,0.0,3.0,60,0.00,,---,0.01,VWS V14.01,2013-10-06 19:54:00,
2013-10-06 15:59:00,85.2,66.7,29.78,WSW,239,1.0,2.0,54,0.00,,---,0.01,VWS V14.01,2013-10-06 19:59:00,
2013-10-06 16:04:00,85.2,66.2,29.77,ESE,105,3.0,3.0,53,0.00,,---,0.01,VWS V14.01,2013-10-06 20:04:00,
2013-10-06 16:09:00,85.2,66.7,29.77,SE,132,0.0,0.0,54,0.00,,---,0.01,VWS V14.01,2013-10-06 20:09:00,
2013-10-06 16:14:00,85.2,66.7,29.77,SE,142,4.0,4.0,54,0.00,,---,0.01,VWS V14.01,2013-10-06 20:14:00,
2013-10-06 16:19:00,85.2,67.2,29.77,SSW,195,0.0,0.0,55,0.00,,---,0.01,VWS V14.01,2013-10-06 20:19:00,
2013-10-06 16:24:00,85.2,66.2,29.77,East,94,0.0,0.0,53,0.00,,---,0.01,VWS V14.01,2013-10-06 20:24:00,
2013-10-06 16:29:00,85.4,67.9,29.76,South,169,4.0,4.0,56,0.00,,---,0.01,VWS V14.01,2013-10-06 20:29:00,
2013-10-06 16:34:00,85.0,64.9,29.76,South,191,0.0,2.0,51,0.00,,---,0.01,VWS V14.01,2013-10-06 20:34:00,
2013-10-06 16:39:00,84.7,65.7,29.76,South,176,0.0,0.0,53,0.00,,---,0.01,VWS V14.01,2013-10-06 20:39:00,
2013-10-06 16:44:00,84.5,66.1,29.76,SE,140,0.0,0.0,54,0.00,,---,0.01,VWS V14.01,2013-10-06 20:44:00,
2013-10-06 16:49:00,84.2,65.2,29.76,SSE,167,0.0,0.0,53,0.00,,---,0.01,VWS V14.01,2013-10-06 20:49:00,
2013-10-06 16:54:00,83.8,64.9,29.76,South,190,0.0,1.0,53,0.00,,---,0.01,VWS V14.01,2013-10-06 20:54:00,
2013-10-06 16:59:00,83.4,65.6,29.75,SSE,148,1.0,2.0,55,0.00,,---,0.01,VWS V14.01,2013-10-06 20:59:00,
2013-10-06 17:04:00,83.0,65.7,29.75,SE,143,0.0,0.0,56,0.00,,---,0.01,VWS V14.01,2013-10-06 21:04:00,
2013-10-06 17:09:00,82.7,65.9,29.75,SSW,200,0.0,0.0,57,0.00,,---,0.01,VWS V14.01,2013-10-06 21:09:00,
2013-10-06 17:14:00,82.3,66.1,29.75,SSW,200,0.0,0.0,58,0.00,,---,0.01,VWS V14.01,2013-10-06 21:14:00,
2013-10-06 17:19:00,82.0,65.8,29.75,SSW,199,0.0,0.0,58,0.00,,---,0.01,VWS V14.01,2013-10-06 21:19:00,
2013-10-06 17:24:00,81.7,65.5,29.75,South,177,0.0,0.0,58,0.00,,---,0.01,VWS V14.01,2013-10-06 21:24:00,
2013-10-06 17:29:00,81.4,66.2,29.75,SSE,148,0.0,1.0,60,0.00,,---,0.01,VWS V14.01,2013-10-06 21:29:00,
2013-10-06 17:34:00,81.2,65.5,29.75,SE,145,0.0,3.0,59,0.00,,---,0.01,VWS V14.01,2013-10-06 21:34:00,
2013-10-06 17:39:00,80.9,65.7,29.75,SE,145,0.0,0.0,60,0.00,,---,0.01,VWS V14.01,2013-10-06 21:39:00,
2013-10-06 17:44:00,80.7,66.0,29.75,ENE,70,0.0,0.0,61,0.00,,---,0.01,VWS V14.01,2013-10-06 21:44:00,
2013-10-06 17:49:00,80.5,65.8,29.75,NNE,19,0.0,0.0,61,0.00,,---,0.01,VWS V14.01,2013-10-06 21:49:00,
2013-10-06 17:54:00,80.2,66.5,29.75,NNE,19,0.0,0.0,63,0.00,,---,0.01,VWS V14.01,2013-10-06 21:54:00,
2013-10-06 17:59:00,79.9,66.7,29.75,NNE,26,0.0,0.0,64,0.00,,---,0.01,VWS V14.01,2013-10-06 21:59:00,
2013-10-06 18:04:00,79.6,67.2,29.75,NNE,26,0.0,0.0,66,0.00,,---,0.01,VWS V14.01,2013-10-06 22:04:00,
2013-10-06 18:09:00,79.1,66.8,29.75,NNE,26,0.0,0.0,66,0.00,,---,0.01,VWS V14.01,2013-10-06 22:09:00,
2013-10-06 18:14:00,78.5,66.6,29.75,NNE,26,0.0,0.0,67,0.00,,---,0.01,VWS V14.01,2013-10-06 22:14:00,
2013-10-06 18:19:00,78.0,67.0,29.75,NNE,26,0.0,0.0,69,0.00,,---,0.01,VWS V14.01,2013-10-06 22:19:00,
2013-10-06 18:24:00,77.4,66.9,29.75,NNE,26,0.0,0.0,70,0.00,,---,0.01,VWS V14.01,2013-10-06 22:24:00,
2013-10-06 18:29:00,76.8,66.7,29.75,NNE,26,0.0,0.0,71,0.00,,---,0.01,VWS V14.01,2013-10-06 22:29:00,
2013-10-06 18:34:00,76.1,66.4,29.74,NNE,26,0.0,0.0,72,0.00,,---,0.01,VWS V14.01,2013-10-06 22:34:00,
2013-10-06 18:39:00,75.5,66.6,29.74,NNE,26,0.0,0.0,74,0.00,,---,0.01,VWS V14.01,2013-10-06 22:39:00,
2013-10-06 18:44:00,75.0,66.6,29.74,NNE,26,0.0,0.0,75,0.00,,---,0.01,VWS V14.01,2013-10-06 22:44:00,